Time;durP1;ratioP1;P1;durP2;ratioP2;P2;SDS_P1;SDS_P2;PMS_P1;PMS_P2;Temp;Humidity;BMP_temperature;BMP_pressure;BME280_temperature;BME280_humidity;BME280_pressure;Samples;Min_cycle;Max_cycle;Signal;HPM_P1;HPM_P2
2023/06/24 00:00:33;;;;;;;9.88;3.75;;;;;;;;;;5009948;28;20048;-69
2023/06/24 00:03:02;;;;;;;10.45;4.47;;;;;;;;;;5012177;28;20294;-68
2023/06/24 00:05:28;;;;;;;10.93;4.13;;;;;;;;;;5008995;28;20021;-69
2023/06/24 00:07:56;;;;;;;9.65;3.92;;;;;;;;;;5013197;28;20183;-69
2023/06/24 00:10:23;;;;;;;9.30;3.83;;;;;;;;;;5006455;28;20663;-69
2023/06/24 00:12:52;;;;;;;9.98;3.95;;;;;;;;;;5014105;28;20025;-69
2023/06/24 00:15:18;;;;;;;9.80;4.30;;;;;;;;;;5011950;28;20725;-66
2023/06/24 00:17:44;;;;;;;10.25;4.10;;;;;;;;;;5010142;28;20861;-68
2023/06/24 00:20:14;;;;;;;10.18;3.85;;;;;;;;;;5012701;28;20525;-68
2023/06/24 00:22:43;;;;;;;9.73;3.88;;;;;;;;;;5008859;28;20666;-70
2023/06/24 00:25:10;;;;;;;9.18;4.20;;;;;;;;;;5009578;28;20045;-68
2023/06/24 00:27:36;;;;;;;10.05;3.58;;;;;;;;;;5010034;28;20044;-67
2023/06/24 00:30:02;;;;;;;9.73;3.97;;;;;;;;;;5013030;28;20179;-69
2023/06/24 00:32:28;;;;;;;10.43;4.05;;;;;;;;;;5011773;28;20500;-68
2023/06/24 00:34:57;;;;;;;8.68;4.07;;;;;;;;;;5006915;28;20375;-68
2023/06/24 00:37:24;;;;;;;9.65;4.07;;;;;;;;;;5007576;28;20545;-69
2023/06/24 00:39:50;;;;;;;8.63;3.85;;;;;;;;;;5011153;28;20033;-70
2023/06/24 00:42:16;;;;;;;9.07;3.88;;;;;;;;;;5001948;28;20115;-68
2023/06/24 00:44:42;;;;;;;9.85;4.20;;;;;;;;;;5010371;28;20021;-69
2023/06/24 00:47:08;;;;;;;8.95;4.30;;;;;;;;;;5016439;28;20029;-68
2023/06/24 00:49:35;;;;;;;12.77;4.80;;;;;;;;;;5011633;28;20670;-68
2023/06/24 00:52:01;;;;;;;10.85;4.80;;;;;;;;;;5014840;28;20040;-68
2023/06/24 00:54:30;;;;;;;9.40;4.10;;;;;;;;;;5011697;28;20037;-69
2023/06/24 00:56:57;;;;;;;9.15;4.47;;;;;;;;;;5013181;28;20781;-69
2023/06/24 00:59:23;;;;;;;11.63;4.53;;;;;;;;;;5009666;28;20317;-68
2023/06/24 01:01:52;;;;;;;12.07;4.45;;;;;;;;;;5015342;28;20025;-68
2023/06/24 01:04:19;;;;;;;9.25;4.22;;;;;;;;;;4982085;28;20028;-69
2023/06/24 01:06:46;;;;;;;11.48;4.75;;;;;;;;;;5021606;28;20024;-69
2023/06/24 01:09:13;;;;;;;11.60;4.30;;;;;;;;;;5020562;28;20029;-68
2023/06/24 01:11:39;;;;;;;10.57;4.15;;;;;;;;;;5021680;28;20640;-69
2023/06/24 01:14:05;;;;;;;9.70;4.28;;;;;;;;;;5021205;28;20326;-68
2023/06/24 01:16:40;;;;;;;10.18;4.30;;;;;;;;;;5014338;28;20041;-68
2023/06/24 01:19:27;;;;;;;11.83;4.27;;;;;;;;;;5018628;28;20110;-67
2023/06/24 01:22:21;;;;;;;12.70;4.93;;;;;;;;;;4987829;28;20033;-67
2023/06/24 01:25:10;;;;;;;12.15;4.40;;;;;;;;;;4973771;28;20361;-67
2023/06/24 01:27:41;;;;;;;10.02;4.53;;;;;;;;;;5009978;28;20452;-67
2023/06/24 01:30:27;;;;;;;9.43;4.28;;;;;;;;;;5019552;28;20279;-67
2023/06/24 01:32:58;;;;;;;10.90;4.30;;;;;;;;;;5017316;28;20472;-69
2023/06/24 01:35:28;;;;;;;11.02;4.25;;;;;;;;;;5016176;28;20037;-69
2023/06/24 01:37:55;;;;;;;11.27;4.05;;;;;;;;;;5020851;28;20553;-67
2023/06/24 01:40:28;;;;;;;11.55;4.40;;;;;;;;;;5018608;28;20028;-68
2023/06/24 01:42:57;;;;;;;12.25;4.43;;;;;;;;;;5019807;28;20608;-68
2023/06/24 01:45:32;;;;;;;9.50;4.57;;;;;;;;;;5019666;28;20840;-67
2023/06/24 01:48:05;;;;;;;11.52;4.88;;;;;;;;;;5019065;28;20070;-69
2023/06/24 01:50:32;;;;;;;11.43;4.97;;;;;;;;;;5016270;28;20028;-69
2023/06/24 01:52:59;;;;;;;10.48;4.88;;;;;;;;;;5007021;28;20032;-68
2023/06/24 01:55:25;;;;;;;12.10;5.57;;;;;;;;;;5017150;28;20205;-67
2023/06/24 01:57:52;;;;;;;10.70;4.95;;;;;;;;;;5020843;28;20025;-67
2023/06/24 02:00:18;;;;;;;12.50;5.18;;;;;;;;;;5000632;28;20021;-67
2023/06/24 02:02:45;;;;;;;11.43;4.60;;;;;;;;;;5018540;28;20033;-67
2023/06/24 02:05:12;;;;;;;12.45;4.93;;;;;;;;;;5019397;28;20573;-67
2023/06/24 02:07:39;;;;;;;10.38;4.28;;;;;;;;;;5015065;28;20367;-67
2023/06/24 02:10:06;;;;;;;11.55;4.35;;;;;;;;;;5003962;28;20502;-67
2023/06/24 02:12:33;;;;;;;11.00;4.40;;;;;;;;;;5014036;28;20244;-67
2023/06/24 02:15:00;;;;;;;13.82;4.50;;;;;;;;;;5016852;28;20037;-67
2023/06/24 02:17:29;;;;;;;10.70;4.63;;;;;;;;;;4998472;28;20064;-67
2023/06/24 02:19:55;;;;;;;10.23;4.53;;;;;;;;;;5016372;28;20490;-67
2023/06/24 02:22:22;;;;;;;12.80;4.60;;;;;;;;;;5013194;28;20059;-68
2023/06/24 02:24:49;;;;;;;12.77;4.70;;;;;;;;;;5015020;28;20037;-67
2023/06/24 02:27:15;;;;;;;11.25;4.18;;;;;;;;;;5013163;28;20064;-67
2023/06/24 02:29:42;;;;;;;11.73;4.72;;;;;;;;;;4994692;28;20133;-69
2023/06/24 02:32:09;;;;;;;8.98;4.18;;;;;;;;;;5016707;28;20040;-68
2023/06/24 02:34:35;;;;;;;12.52;4.63;;;;;;;;;;5009878;28;20476;-68
2023/06/24 02:37:02;;;;;;;10.43;4.15;;;;;;;;;;5012840;28;20136;-68
2023/06/24 02:39:28;;;;;;;8.73;3.60;;;;;;;;;;5013267;28;20041;-67
2023/06/24 02:41:54;;;;;;;9.43;3.92;;;;;;;;;;4998304;28;20059;-67
2023/06/24 02:44:20;;;;;;;8.38;3.97;;;;;;;;;;5010543;28;20021;-67
2023/06/24 02:46:48;;;;;;;10.43;4.38;;;;;;;;;;5018323;28;20122;-68
2023/06/24 02:49:15;;;;;;;9.23;3.65;;;;;;;;;;5011939;28;20108;-67
2023/06/24 02:51:42;;;;;;;9.52;3.80;;;;;;;;;;5014862;28;20159;-67
2023/06/24 02:54:08;;;;;;;8.48;3.80;;;;;;;;;;5013252;28;20029;-68
2023/06/24 02:56:36;;;;;;;8.05;3.28;;;;;;;;;;5009319;28;21020;-67
2023/06/24 02:59:02;;;;;;;9.77;3.42;;;;;;;;;;5014710;28;20040;-67
2023/06/24 03:01:29;;;;;;;8.32;3.70;;;;;;;;;;5012137;28;20041;-67
2023/06/24 03:03:55;;;;;;;9.80;3.47;;;;;;;;;;5014888;28;20099;-68
2023/06/24 03:06:23;;;;;;;9.93;4.03;;;;;;;;;;5013361;28;20044;-67
2023/06/24 03:08:50;;;;;;;7.63;3.40;;;;;;;;;;5015610;28;20493;-67
2023/06/24 03:11:17;;;;;;;10.43;3.63;;;;;;;;;;5008968;28;20064;-67
2023/06/24 03:13:45;;;;;;;7.80;3.40;;;;;;;;;;5015947;28;20021;-67
2023/06/24 03:16:12;;;;;;;9.68;3.10;;;;;;;;;;5013383;28;20121;-68
2023/06/24 03:18:40;;;;;;;7.70;3.03;;;;;;;;;;5009255;28;20447;-68
2023/06/24 03:21:06;;;;;;;9.10;3.30;;;;;;;;;;4997636;28;20052;-67
2023/06/24 03:23:32;;;;;;;8.48;3.00;;;;;;;;;;5013992;28;20021;-67
2023/06/24 03:25:58;;;;;;;8.02;2.78;;;;;;;;;;5014914;28;20187;-68
2023/06/24 03:28:24;;;;;;;9.35;3.33;;;;;;;;;;5013985;28;20608;-67
2023/06/24 03:30:51;;;;;;;8.15;3.58;;;;;;;;;;5013375;28;20383;-69
2023/06/24 03:33:17;;;;;;;8.68;3.50;;;;;;;;;;4993787;28;20041;-69
2023/06/24 03:35:43;;;;;;;11.10;4.00;;;;;;;;;;5016782;28;20118;-69
2023/06/24 03:38:09;;;;;;;9.02;3.40;;;;;;;;;;5014258;28;20375;-69
2023/06/24 03:40:36;;;;;;;7.55;2.75;;;;;;;;;;5007570;28;20154;-68
2023/06/24 03:43:02;;;;;;;7.20;3.13;;;;;;;;;;5015673;28;20028;-68
2023/06/24 03:45:28;;;;;;;8.65;3.63;;;;;;;;;;4994845;28;20395;-69
2023/06/24 03:47:54;;;;;;;7.18;3.15;;;;;;;;;;5012744;28;20473;-68
2023/06/24 03:50:20;;;;;;;8.60;3.50;;;;;;;;;;5009522;28;20048;-68
2023/06/24 03:52:47;;;;;;;10.90;4.18;;;;;;;;;;5013561;28;20056;-68
2023/06/24 03:55:13;;;;;;;8.85;3.95;;;;;;;;;;4995912;28;20458;-68
2023/06/24 03:57:39;;;;;;;9.55;4.13;;;;;;;;;;5016140;28;20735;-68
2023/06/24 04:00:14;;;;;;;11.02;3.95;;;;;;;;;;5011383;28;20452;-68
2023/06/24 04:02:41;;;;;;;9.90;3.70;;;;;;;;;;5010967;28;20059;-69
2023/06/24 04:05:08;;;;;;;12.05;4.65;;;;;;;;;;5013911;28;20022;-68
2023/06/24 04:07:35;;;;;;;11.60;4.38;;;;;;;;;;4991451;28;20366;-68
2023/06/24 04:10:02;;;;;;;9.18;3.92;;;;;;;;;;5011692;28;20536;-68
2023/06/24 04:12:28;;;;;;;12.63;4.57;;;;;;;;;;5008966;28;20153;-68
2023/06/24 04:14:55;;;;;;;11.52;4.55;;;;;;;;;;5015063;28;20032;-68
2023/06/24 04:17:21;;;;;;;10.15;4.55;;;;;;;;;;5009029;28;20130;-68
2023/06/24 04:19:47;;;;;;;9.93;3.78;;;;;;;;;;5015384;28;20114;-68
2023/06/24 04:22:13;;;;;;;9.10;4.15;;;;;;;;;;5014373;28;20104;-69
2023/06/24 04:24:39;;;;;;;10.25;4.35;;;;;;;;;;5013387;28;20048;-68
2023/06/24 04:27:08;;;;;;;10.25;4.43;;;;;;;;;;4995547;28;20772;-69
2023/06/24 04:29:35;;;;;;;8.98;3.88;;;;;;;;;;5009617;28;20138;-69
2023/06/24 04:32:01;;;;;;;11.75;4.25;;;;;;;;;;5011994;28;20103;-69
2023/06/24 04:34:27;;;;;;;11.02;4.78;;;;;;;;;;4989814;28;20044;-67
2023/06/24 04:36:53;;;;;;;10.65;4.38;;;;;;;;;;5014229;28;20603;-68
2023/06/24 04:39:20;;;;;;;12.02;4.90;;;;;;;;;;5008778;28;20294;-68
2023/06/24 04:41:46;;;;;;;10.48;4.15;;;;;;;;;;5013640;28;20061;-67
2023/06/24 04:44:13;;;;;;;12.35;4.32;;;;;;;;;;5013067;28;20120;-69
2023/06/24 04:46:40;;;;;;;10.27;4.47;;;;;;;;;;4995272;28;20035;-69
2023/06/24 04:49:06;;;;;;;9.95;4.00;;;;;;;;;;5008955;28;20853;-68
2023/06/24 04:51:32;;;;;;;12.73;4.65;;;;;;;;;;5011346;28;20029;-68
2023/06/24 04:53:59;;;;;;;9.07;3.95;;;;;;;;;;4997270;28;20127;-69
2023/06/24 04:56:25;;;;;;;9.55;3.55;;;;;;;;;;5011249;28;20061;-69
2023/06/24 04:58:51;;;;;;;9.07;3.10;;;;;;;;;;4994392;28;20033;-69
2023/06/24 05:01:18;;;;;;;10.82;4.00;;;;;;;;;;5009058;28;20579;-68
2023/06/24 05:03:44;;;;;;;9.45;3.65;;;;;;;;;;5010789;28;21502;-68
2023/06/24 05:06:10;;;;;;;8.23;3.20;;;;;;;;;;5014008;28;20044;-68
2023/06/24 05:08:37;;;;;;;8.00;3.50;;;;;;;;;;5008206;28;20641;-68
2023/06/24 05:11:03;;;;;;;9.07;3.33;;;;;;;;;;5015157;28;20020;-69
2023/06/24 05:13:29;;;;;;;9.57;3.20;;;;;;;;;;4995369;28;20977;-70
2023/06/24 05:15:55;;;;;;;10.02;3.03;;;;;;;;;;5011622;28;20021;-69
2023/06/24 05:18:21;;;;;;;8.95;3.40;;;;;;;;;;5012863;28;20720;-68
2023/06/24 05:20:47;;;;;;;10.48;3.58;;;;;;;;;;5013792;28;20209;-69
2023/06/24 05:23:14;;;;;;;8.13;3.08;;;;;;;;;;5013017;28;20574;-67
2023/06/24 05:25:40;;;;;;;8.55;3.00;;;;;;;;;;5011512;28;20052;-69
2023/06/24 05:28:06;;;;;;;9.05;3.25;;;;;;;;;;5013953;28;20029;-69
2023/06/24 05:30:32;;;;;;;8.52;3.40;;;;;;;;;;5008730;28;20447;-69
2023/06/24 05:32:58;;;;;;;9.48;3.60;;;;;;;;;;5011289;28;20083;-70
2023/06/24 05:35:24;;;;;;;8.38;3.15;;;;;;;;;;5012418;28;20033;-69
2023/06/24 05:37:50;;;;;;;7.97;3.20;;;;;;;;;;4998189;28;20493;-67
2023/06/24 05:40:17;;;;;;;11.50;4.43;;;;;;;;;;5008020;28;20637;-68
2023/06/24 05:42:43;;;;;;;10.30;4.00;;;;;;;;;;5012966;28;20491;-68
2023/06/24 05:45:09;;;;;;;9.30;3.80;;;;;;;;;;4997080;28;20521;-68
2023/06/24 05:47:35;;;;;;;10.05;4.00;;;;;;;;;;5009075;28;20322;-68
2023/06/24 05:50:01;;;;;;;9.65;3.75;;;;;;;;;;5013530;28;20035;-68
2023/06/24 05:52:29;;;;;;;11.23;3.85;;;;;;;;;;5012332;28;20120;-68
2023/06/24 05:54:55;;;;;;;10.15;3.58;;;;;;;;;;4999321;28;20843;-67
2023/06/24 05:57:21;;;;;;;9.93;4.13;;;;;;;;;;5012372;28;20075;-69
2023/06/24 05:59:47;;;;;;;14.48;4.43;;;;;;;;;;5014307;28;20665;-69
2023/06/24 06:02:13;;;;;;;10.65;3.90;;;;;;;;;;5016263;28;20666;-70
2023/06/24 06:04:39;;;;;;;8.45;3.67;;;;;;;;;;5012867;28;20085;-67
2023/06/24 06:07:06;;;;;;;8.52;3.58;;;;;;;;;;5013928;28;20032;-67
2023/06/24 06:09:32;;;;;;;9.68;3.67;;;;;;;;;;5012723;28;20071;-68
2023/06/24 06:11:58;;;;;;;11.07;3.58;;;;;;;;;;5015939;28;20033;-68
2023/06/24 06:14:24;;;;;;;11.90;3.70;;;;;;;;;;5013083;28;20547;-68
2023/06/24 06:16:50;;;;;;;10.30;3.60;;;;;;;;;;5016497;28;20390;-68
2023/06/24 06:19:16;;;;;;;14.10;4.53;;;;;;;;;;5013270;28;20159;-68
2023/06/24 06:21:43;;;;;;;11.48;4.93;;;;;;;;;;5016068;28;20616;-68
2023/06/24 06:24:09;;;;;;;20.52;5.57;;;;;;;;;;5013775;28;20550;-68
2023/06/24 06:26:35;;;;;;;11.27;4.35;;;;;;;;;;5008462;28;20036;-67
2023/06/24 06:29:01;;;;;;;11.98;4.82;;;;;;;;;;5014261;28;20083;-68
2023/06/24 06:31:27;;;;;;;13.77;5.30;;;;;;;;;;5012885;28;20032;-68
2023/06/24 06:33:53;;;;;;;14.77;4.43;;;;;;;;;;4998408;28;20437;-68
2023/06/24 06:36:19;;;;;;;13.48;5.07;;;;;;;;;;5010659;28;20040;-68
2023/06/24 06:38:45;;;;;;;14.20;4.85;;;;;;;;;;5015195;28;20032;-70
2023/06/24 06:41:12;;;;;;;11.40;4.93;;;;;;;;;;4995018;28;20036;-68
2023/06/24 06:43:38;;;;;;;11.90;5.43;;;;;;;;;;5010635;28;20017;-67
2023/06/24 06:46:04;;;;;;;11.00;5.20;;;;;;;;;;5017282;28;20036;-68
2023/06/24 06:48:30;;;;;;;13.35;5.63;;;;;;;;;;5012188;28;20083;-68
2023/06/24 06:50:56;;;;;;;12.55;5.63;;;;;;;;;;5014626;28;20765;-68
2023/06/24 06:53:23;;;;;;;12.82;5.93;;;;;;;;;;5012054;28;20065;-68
2023/06/24 06:55:49;;;;;;;14.27;5.53;;;;;;;;;;5013461;28;20037;-68
2023/06/24 06:58:15;;;;;;;13.60;5.30;;;;;;;;;;5012257;28;20095;-68
2023/06/24 07:00:41;;;;;;;12.05;5.82;;;;;;;;;;5017500;28;20441;-68
2023/06/24 07:03:07;;;;;;;11.80;5.20;;;;;;;;;;4998624;28;21328;-69
2023/06/24 07:05:34;;;;;;;11.75;4.68;;;;;;;;;;5011419;28;20538;-70
2023/06/24 07:08:00;;;;;;;11.05;4.60;;;;;;;;;;4997698;28;20453;-67
2023/06/24 07:10:26;;;;;;;12.88;4.82;;;;;;;;;;5009466;28;20040;-68
2023/06/24 07:12:57;;;;;;;10.75;4.13;;;;;;;;;;5013392;28;20036;-67
2023/06/24 07:15:24;;;;;;;11.35;3.90;;;;;;;;;;5012066;28;20044;-67
2023/06/24 07:17:50;;;;;;;7.80;3.70;;;;;;;;;;4995691;28;20280;-68
2023/06/24 07:20:17;;;;;;;8.20;3.28;;;;;;;;;;5012673;28;20025;-68
2023/06/24 07:22:43;;;;;;;10.30;3.90;;;;;;;;;;4994947;28;20438;-67
2023/06/24 07:25:09;;;;;;;8.52;3.72;;;;;;;;;;5014788;28;20260;-69
2023/06/24 07:27:35;;;;;;;8.35;3.10;;;;;;;;;;5012292;28;20820;-67
2023/06/24 07:30:01;;;;;;;11.40;3.10;;;;;;;;;;5015679;28;20140;-67
2023/06/24 07:32:27;;;;;;;7.80;2.83;;;;;;;;;;5012186;28;20734;-67
2023/06/24 07:34:53;;;;;;;7.13;2.75;;;;;;;;;;5015398;28;20222;-67
2023/06/24 07:37:19;;;;;;;7.68;2.92;;;;;;;;;;5012714;28;20028;-68
2023/06/24 07:39:45;;;;;;;7.85;2.83;;;;;;;;;;5013905;28;20365;-68
2023/06/24 07:42:12;;;;;;;9.60;3.55;;;;;;;;;;4999583;28;20483;-67
2023/06/24 07:44:39;;;;;;;6.65;2.58;;;;;;;;;;5014264;28;20064;-68
2023/06/24 07:47:06;;;;;;;9.10;2.78;;;;;;;;;;5016541;28;20021;-68
2023/06/24 07:49:32;;;;;;;12.43;3.50;;;;;;;;;;5009518;28;20028;-67
2023/06/24 07:51:58;;;;;;;9.63;3.33;;;;;;;;;;5015621;28;21126;-67
2023/06/24 07:54:24;;;;;;;13.07;3.78;;;;;;;;;;5012986;28;20808;-68
2023/06/24 07:56:50;;;;;;;11.02;3.65;;;;;;;;;;5015796;28;20529;-68
2023/06/24 07:59:16;;;;;;;10.30;3.70;;;;;;;;;;4994262;28;20040;-69
2023/06/24 08:01:43;;;;;;;9.80;3.72;;;;;;;;;;5016875;28;20763;-68
2023/06/24 08:04:09;;;;;;;9.85;3.60;;;;;;;;;;5014984;28;20059;-68
2023/06/24 08:06:35;;;;;;;10.40;3.47;;;;;;;;;;5010603;28;20028;-70
2023/06/24 08:09:01;;;;;;;9.48;3.60;;;;;;;;;;5015772;28;20035;-67
2023/06/24 08:11:27;;;;;;;10.82;3.67;;;;;;;;;;5010710;28;20060;-68
2023/06/24 08:13:53;;;;;;;8.45;3.40;;;;;;;;;;5015404;28;20032;-68
2023/06/24 08:16:20;;;;;;;8.80;3.10;;;;;;;;;;5011381;28;20033;-68
2023/06/24 08:18:46;;;;;;;9.05;3.67;;;;;;;;;;5014335;28;20510;-68
2023/06/24 08:21:13;;;;;;;8.18;3.70;;;;;;;;;;5013497;28;20036;-69
2023/06/24 08:23:40;;;;;;;9.82;3.60;;;;;;;;;;5012644;28;20031;-68
2023/06/24 08:26:07;;;;;;;8.85;3.50;;;;;;;;;;5016035;28;20497;-68
2023/06/24 08:28:33;;;;;;;8.82;3.55;;;;;;;;;;5010464;28;20029;-68
2023/06/24 08:31:00;;;;;;;11.13;3.40;;;;;;;;;;5015578;28;20067;-68
2023/06/24 08:33:26;;;;;;;7.18;3.03;;;;;;;;;;5010010;28;22410;-68
2023/06/24 08:35:52;;;;;;;8.52;3.15;;;;;;;;;;5015115;28;20146;-67
2023/06/24 08:38:18;;;;;;;7.43;2.90;;;;;;;;;;5010831;28;20040;-68
2023/06/24 08:40:44;;;;;;;7.65;3.10;;;;;;;;;;5017769;28;20036;-68
2023/06/24 08:43:11;;;;;;;8.38;3.40;;;;;;;;;;5015464;28;20025;-68
2023/06/24 08:45:37;;;;;;;9.23;3.38;;;;;;;;;;5010712;28;20104;-68
2023/06/24 08:48:04;;;;;;;7.57;3.05;;;;;;;;;;5011558;28;20059;-69
2023/06/24 08:50:40;;;;;;;7.57;2.90;;;;;;;;;;5007149;28;20040;-68
2023/06/24 08:53:08;;;;;;;7.07;2.85;;;;;;;;;;5013283;28;20036;-68
2023/06/24 08:55:37;;;;;;;9.43;3.00;;;;;;;;;;5009448;28;21022;-68
2023/06/24 08:58:03;;;;;;;10.02;3.30;;;;;;;;;;5011041;28;20068;-68
2023/06/24 09:00:29;;;;;;;10.00;3.03;;;;;;;;;;5009423;28;20032;-68
2023/06/24 09:02:56;;;;;;;8.80;3.08;;;;;;;;;;4996190;28;20371;-68
2023/06/24 09:05:22;;;;;;;8.32;3.10;;;;;;;;;;5009963;28;20075;-68
2023/06/24 09:07:49;;;;;;;8.38;3.20;;;;;;;;;;4996214;28;20281;-68
2023/06/24 09:10:34;;;;;;;13.50;3.10;;;;;;;;;;4997528;28;20029;-68
2023/06/24 09:13:04;;;;;;;9.00;3.10;;;;;;;;;;4985977;28;20072;-69
2023/06/24 09:15:34;;;;;;;7.78;3.15;;;;;;;;;;5012288;28;20635;-68
2023/06/24 09:18:01;;;;;;;7.32;3.10;;;;;;;;;;5017795;28;20039;-67
2023/06/24 09:20:31;;;;;;;8.35;3.00;;;;;;;;;;5014711;28;20033;-68
2023/06/24 09:23:01;;;;;;;11.65;3.45;;;;;;;;;;5017570;28;20033;-66
2023/06/24 09:25:27;;;;;;;7.70;3.13;;;;;;;;;;5020198;28;20045;-67
2023/06/24 09:27:55;;;;;;;8.13;2.90;;;;;;;;;;5021105;28;20025;-68
2023/06/24 09:30:22;;;;;;;7.35;2.97;;;;;;;;;;5018641;28;20040;-68
2023/06/24 09:32:52;;;;;;;8.35;3.20;;;;;;;;;;5019806;28;20037;-67
2023/06/24 09:35:19;;;;;;;7.03;2.75;;;;;;;;;;5018413;28;20044;-68
2023/06/24 09:37:56;;;;;;;8.07;3.47;;;;;;;;;;5005520;28;20043;-67
2023/06/24 09:40:22;;;;;;;7.80;3.10;;;;;;;;;;5020881;28;20111;-68
2023/06/24 09:43:02;;;;;;;8.27;3.05;;;;;;;;;;5025505;28;20569;-68
2023/06/24 09:45:29;;;;;;;6.90;3.13;;;;;;;;;;5021009;28;20422;-66
2023/06/24 09:47:56;;;;;;;8.23;3.42;;;;;;;;;;4995779;28;20327;-67
2023/06/24 09:50:22;;;;;;;9.20;3.20;;;;;;;;;;4973751;28;20029;-66
2023/06/24 09:52:49;;;;;;;6.75;2.97;;;;;;;;;;4961887;28;20041;-66
2023/06/24 09:55:17;;;;;;;9.52;3.53;;;;;;;;;;4969303;28;20044;-66
2023/06/24 09:57:48;;;;;;;8.57;3.58;;;;;;;;;;4975618;28;20056;-66
2023/06/24 10:00:17;;;;;;;9.48;3.20;;;;;;;;;;4990132;28;20036;-67
2023/06/24 10:02:45;;;;;;;11.32;3.20;;;;;;;;;;4995208;28;20640;-66
2023/06/24 10:05:11;;;;;;;8.15;3.42;;;;;;;;;;5014625;28;20080;-66
2023/06/24 10:07:39;;;;;;;9.20;3.17;;;;;;;;;;5018355;28;20042;-66
2023/06/24 10:10:05;;;;;;;10.18;2.90;;;;;;;;;;5020906;28;20060;-66
2023/06/24 10:12:31;;;;;;;8.70;3.00;;;;;;;;;;5017732;28;20094;-65
2023/06/24 10:14:58;;;;;;;9.02;3.47;;;;;;;;;;5005879;28;20398;-65
2023/06/24 10:17:25;;;;;;;7.85;2.70;;;;;;;;;;5010636;28;20037;-66
2023/06/24 10:19:54;;;;;;;7.30;3.25;;;;;;;;;;5013359;28;20033;-66
2023/06/24 10:22:22;;;;;;;9.55;2.78;;;;;;;;;;5012022;28;20254;-65
2023/06/24 10:24:48;;;;;;;7.63;2.88;;;;;;;;;;5002098;28;20049;-65
2023/06/24 10:27:14;;;;;;;8.07;3.13;;;;;;;;;;5012499;28;20087;-65
2023/06/24 10:29:44;;;;;;;7.93;3.08;;;;;;;;;;5015129;28;20029;-65
2023/06/24 10:32:11;;;;;;;6.82;2.92;;;;;;;;;;5014310;28;20037;-65
2023/06/24 10:34:40;;;;;;;8.15;3.33;;;;;;;;;;5008520;28;20040;-65
2023/06/24 10:37:09;;;;;;;8.23;3.35;;;;;;;;;;5013228;28;20029;-65
2023/06/24 10:39:51;;;;;;;7.75;3.20;;;;;;;;;;5009912;28;20029;-67
2023/06/24 10:42:20;;;;;;;7.75;3.35;;;;;;;;;;5013766;28;20321;-66
2023/06/24 10:44:49;;;;;;;7.25;3.22;;;;;;;;;;5014897;28;20023;-65
2023/06/24 10:47:15;;;;;;;7.38;3.00;;;;;;;;;;5012101;28;20494;-65
2023/06/24 10:49:41;;;;;;;7.80;3.00;;;;;;;;;;5012220;28;20032;-66
2023/06/24 10:52:11;;;;;;;7.50;3.30;;;;;;;;;;5014418;28;20036;-66
2023/06/24 10:54:41;;;;;;;6.68;2.95;;;;;;;;;;5009414;28;20032;-65
2023/06/24 10:57:07;;;;;;;7.60;3.00;;;;;;;;;;5013586;28;20032;-66
2023/06/24 10:59:40;;;;;;;7.32;2.97;;;;;;;;;;4990903;28;20485;-67
2023/06/24 11:02:06;;;;;;;6.68;2.85;;;;;;;;;;5014666;28;20037;-65
2023/06/24 11:04:32;;;;;;;7.30;2.85;;;;;;;;;;4997813;28;20211;-65
2023/06/24 11:07:02;;;;;;;8.20;3.30;;;;;;;;;;5013512;28;20044;-65
2023/06/24 11:09:28;;;;;;;7.60;3.17;;;;;;;;;;5008213;28;20036;-67
2023/06/24 11:11:54;;;;;;;8.00;2.80;;;;;;;;;;5014105;28;20499;-66
2023/06/24 11:14:20;;;;;;;6.93;2.90;;;;;;;;;;5010554;28;20410;-66
2023/06/24 11:16:47;;;;;;;7.93;2.90;;;;;;;;;;5015857;28;20072;-66
2023/06/24 11:19:13;;;;;;;8.30;3.17;;;;;;;;;;5015003;28;20083;-66
2023/06/24 11:21:39;;;;;;;7.88;3.15;;;;;;;;;;5010729;28;20029;-65
2023/06/24 11:24:06;;;;;;;9.30;3.50;;;;;;;;;;5011928;28;20079;-65
2023/06/24 11:26:33;;;;;;;12.52;3.17;;;;;;;;;;5009130;28;20033;-65
2023/06/24 11:28:59;;;;;;;7.93;2.92;;;;;;;;;;5014743;28;20033;-64
2023/06/24 11:31:28;;;;;;;7.45;3.10;;;;;;;;;;5011865;28;20085;-65
2023/06/24 11:33:55;;;;;;;7.88;3.00;;;;;;;;;;5013693;28;20323;-65
2023/06/24 11:36:21;;;;;;;7.15;3.20;;;;;;;;;;4994496;28;20040;-65
2023/06/24 11:38:47;;;;;;;8.15;3.28;;;;;;;;;;5013314;28;20064;-65
2023/06/24 11:41:14;;;;;;;7.55;2.92;;;;;;;;;;5013462;28;20028;-66
2023/06/24 11:43:47;;;;;;;7.75;3.33;;;;;;;;;;5013489;28;20025;-65
2023/06/24 11:46:24;;;;;;;7.22;2.90;;;;;;;;;;5015872;28;20776;-66
2023/06/24 11:48:50;;;;;;;8.02;2.90;;;;;;;;;;5014654;28;20433;-66
2023/06/24 11:51:17;;;;;;;13.00;3.63;;;;;;;;;;5000364;28;20431;-65
2023/06/24 11:53:45;;;;;;;8.10;3.00;;;;;;;;;;5012447;28;20942;-66
2023/06/24 11:56:11;;;;;;;9.25;3.13;;;;;;;;;;4997602;28;20043;-65
2023/06/24 11:58:37;;;;;;;9.75;3.13;;;;;;;;;;5009403;28;20036;-65
2023/06/24 12:01:04;;;;;;;7.55;3.17;;;;;;;;;;5011224;28;20294;-65
2023/06/24 12:03:32;;;;;;;7.45;3.22;;;;;;;;;;4997356;28;20037;-68
2023/06/24 12:05:58;;;;;;;8.75;3.30;;;;;;;;;;5011136;28;20254;-64
2023/06/24 12:08:24;;;;;;;7.97;3.30;;;;;;;;;;4995582;28;20308;-65
2023/06/24 12:10:51;;;;;;;9.05;3.05;;;;;;;;;;5012676;28;20484;-65
2023/06/24 12:13:17;;;;;;;9.00;2.90;;;;;;;;;;5014067;28;20501;-66
2023/06/24 12:15:43;;;;;;;7.63;2.90;;;;;;;;;;5015214;28;20078;-65
2023/06/24 12:18:09;;;;;;;8.52;2.90;;;;;;;;;;5014482;28;20090;-65
2023/06/24 12:20:36;;;;;;;6.68;2.58;;;;;;;;;;5008441;28;20025;-66
2023/06/24 12:23:06;;;;;;;8.18;3.45;;;;;;;;;;5012092;28;20250;-65
2023/06/24 12:25:32;;;;;;;7.57;2.90;;;;;;;;;;5010633;28;20056;-64
2023/06/24 12:27:59;;;;;;;6.68;2.90;;;;;;;;;;5011982;28;20671;-65
2023/06/24 12:30:26;;;;;;;11.05;3.47;;;;;;;;;;5009126;28;20083;-65
2023/06/24 12:32:52;;;;;;;8.90;3.25;;;;;;;;;;4994303;28;20471;-66
2023/06/24 12:35:18;;;;;;;6.07;2.78;;;;;;;;;;5009217;28;20029;-66
2023/06/24 12:37:45;;;;;;;7.22;3.03;;;;;;;;;;4995148;28;20029;-66
2023/06/24 12:40:11;;;;;;;6.80;2.72;;;;;;;;;;5013129;28;20717;-64
2023/06/24 12:42:37;;;;;;;7.53;3.10;;;;;;;;;;5007859;28;20079;-67
2023/06/24 12:45:04;;;;;;;8.23;3.17;;;;;;;;;;5011191;28;20020;-67
2023/06/24 12:47:30;;;;;;;7.70;3.00;;;;;;;;;;5007924;28;20021;-67
2023/06/24 12:49:56;;;;;;;6.65;2.53;;;;;;;;;;4996117;28;20321;-65
2023/06/24 12:52:22;;;;;;;7.93;2.83;;;;;;;;;;5009061;28;20566;-66
2023/06/24 12:54:49;;;;;;;7.93;2.97;;;;;;;;;;5014679;28;20031;-66
2023/06/24 12:57:15;;;;;;;7.88;2.83;;;;;;;;;;5009912;28;20478;-66
2023/06/24 12:59:42;;;;;;;10.60;2.92;;;;;;;;;;5004304;28;20521;-67
2023/06/24 13:02:08;;;;;;;8.10;3.20;;;;;;;;;;4996574;28;20025;-65
2023/06/24 13:04:34;;;;;;;8.63;3.17;;;;;;;;;;5002978;28;20029;-66
2023/06/24 13:07:00;;;;;;;7.75;2.80;;;;;;;;;;5009297;28;20052;-67
2023/06/24 13:09:27;;;;;;;7.13;2.85;;;;;;;;;;5007936;28;20025;-67
2023/06/24 13:11:53;;;;;;;9.43;3.03;;;;;;;;;;5008238;28;20025;-67
2023/06/24 13:14:19;;;;;;;8.25;3.05;;;;;;;;;;5003354;28;20684;-66
2023/06/24 13:16:45;;;;;;;8.23;3.40;;;;;;;;;;5009815;28;20482;-65
2023/06/24 13:19:12;;;;;;;7.13;2.90;;;;;;;;;;5011433;28;21006;-65
2023/06/24 13:21:38;;;;;;;6.47;2.85;;;;;;;;;;5007181;28;20052;-66
2023/06/24 13:24:04;;;;;;;9.18;3.08;;;;;;;;;;5011788;28;20021;-66
2023/06/24 13:26:31;;;;;;;7.80;2.95;;;;;;;;;;5004642;28;20044;-66
2023/06/24 13:28:57;;;;;;;8.82;3.10;;;;;;;;;;5012624;28;20060;-66
2023/06/24 13:31:24;;;;;;;7.55;3.28;;;;;;;;;;5006870;28;20504;-66
2023/06/24 13:33:51;;;;;;;7.25;3.22;;;;;;;;;;5007473;28;20029;-66
2023/06/24 13:36:36;;;;;;;7.32;2.75;;;;;;;;;;5006864;28;20557;-67
2023/06/24 13:39:03;;;;;;;6.55;2.63;;;;;;;;;;5010295;28;20064;-67
2023/06/24 13:41:31;;;;;;;7.07;2.70;;;;;;;;;;5003871;28;20041;-66
2023/06/24 13:43:58;;;;;;;9.25;2.80;;;;;;;;;;4994959;28;20040;-65
2023/06/24 13:46:24;;;;;;;7.78;2.83;;;;;;;;;;5008965;28;20036;-65
2023/06/24 13:48:50;;;;;;;9.50;3.17;;;;;;;;;;5011031;28;20033;-66
2023/06/24 13:51:17;;;;;;;6.55;2.65;;;;;;;;;;5004582;28;20113;-66
2023/06/24 13:53:43;;;;;;;8.98;3.22;;;;;;;;;;5003541;28;21007;-66
2023/06/24 13:56:09;;;;;;;8.07;3.28;;;;;;;;;;5010206;28;20532;-66
2023/06/24 13:58:36;;;;;;;8.13;3.10;;;;;;;;;;5006907;28;22954;-65
2023/06/24 14:01:03;;;;;;;11.70;3.30;;;;;;;;;;5009893;28;20120;-66
2023/06/24 14:03:29;;;;;;;8.23;3.03;;;;;;;;;;5006574;28;20016;-65
2023/06/24 14:05:56;;;;;;;7.10;3.15;;;;;;;;;;5011483;28;20716;-68
2023/06/24 14:08:22;;;;;;;7.63;3.15;;;;;;;;;;5007927;28;20375;-66
2023/06/24 14:10:49;;;;;;;7.40;2.78;;;;;;;;;;5013482;28;20021;-66
2023/06/24 14:13:15;;;;;;;10.77;3.00;;;;;;;;;;5015439;28;20032;-66
2023/06/24 14:15:41;;;;;;;7.35;3.03;;;;;;;;;;4998645;28;20681;-66
2023/06/24 14:18:08;;;;;;;7.60;2.70;;;;;;;;;;5013672;28;20040;-66
2023/06/24 14:20:34;;;;;;;7.18;2.80;;;;;;;;;;5008630;28;20106;-66
2023/06/24 14:23:00;;;;;;;7.95;2.63;;;;;;;;;;4992001;28;20112;-66
2023/06/24 14:25:27;;;;;;;8.77;2.88;;;;;;;;;;4991843;28;20402;-67
2023/06/24 14:27:53;;;;;;;8.23;3.03;;;;;;;;;;5018989;28;20025;-67
2023/06/24 14:30:19;;;;;;;7.93;3.17;;;;;;;;;;5020245;28;20463;-65
2023/06/24 14:32:45;;;;;;;8.35;2.90;;;;;;;;;;5020348;28;20387;-65
2023/06/24 14:35:12;;;;;;;10.65;2.95;;;;;;;;;;5026440;28;20591;-65
2023/06/24 14:37:38;;;;;;;7.63;3.00;;;;;;;;;;5021160;28;20391;-65